To NAV CANADA Home Page Login to a new session Search on AWWS site Feedback and Comments Disclaimer Vers la page française équivalente Tips FAQ What's new on the site To the Forecasts and Observations / NOTAM section To "File a Flight Plan" website Publications and other links Update of the User's profile FIC Telephone Numbers My Weather Data Folder Route Weather Data Regional Weather Data Local Weather Data To the Forecasts and Observations / NOTAM section
Request Generated 10/22/2017 at 00:54:11 UTC . Weather information available at that time is displayed.

METAR/TAF

TORONTO/LESTER B. PEARSON INTL/ON    

METAR CYYZ 220000Z 13005KT 15SM BKN260 16/12 A3022 RMK CI6 SLP236=
METAR CYYZ 212300Z 14006KT 15SM BKN250 16/12 A3022 RMK CI7 SLP237
DENSITY ALT 600FT=
METAR CYYZ 212200Z 13005KT 15SM FEW170 BKN240 18/12 A3021 RMK AC2CS5
SLP235 DENSITY ALT 700FT=

TAF CYYZ 212338Z 2200/2306 15005KT P6SM FEW150 BKN240
BECMG 2205/2207 SCT250
FM221500 18012G22KT P6SM SCT240
FM230200 19012KT P6SM BKN240
RMK NXT FCST BY 220300Z=
Your time UTC time
Weather data provided by Environment Canada and NAV CANADA